createdAt,value
2018-09-08T00:00:04.907Z,99844.59
2018-09-08T00:01:40.344Z,99847.46
2018-09-08T00:03:16.029Z,99852.59
2018-09-08T00:04:51.588Z,99852.75
2018-09-08T00:06:33.056Z,99857.86
2018-09-08T00:08:08.510Z,99853.43
2018-09-08T00:09:43.928Z,99855.55
2018-09-08T00:11:19.376Z,99857.58
2018-09-08T00:12:55.016Z,99860.84
2018-09-08T00:14:30.494Z,99865.14
2018-09-08T00:16:11.370Z,99866.16
2018-09-08T00:17:52.161Z,99862.08
2018-09-08T00:19:33.087Z,99867.12
2018-09-08T00:21:14.098Z,99866.59
2018-09-08T00:22:54.950Z,99869.88
2018-09-08T00:24:35.690Z,99873.69
2018-09-08T00:26:16.594Z,99872.91
2018-09-08T00:27:57.510Z,99865.45
2018-09-08T00:29:37.370Z,99883.12
2018-09-08T00:31:18.226Z,99879.86
2018-09-08T00:32:53.731Z,99881.19
2018-09-08T00:34:29.197Z,99883.73
2018-09-08T00:36:04.633Z,99884.92
2018-09-08T00:37:40.092Z,99882.83
2018-09-08T00:39:15.583Z,99881.58
2018-09-08T00:40:51.073Z,99879.66
2018-09-08T00:42:26.557Z,99879.27
2018-09-08T00:44:02.026Z,99885.56
2018-09-08T00:45:37.497Z,99883.22
2018-09-08T00:47:12.966Z,99882.28
2018-09-08T00:48:48.425Z,99887.80
2018-09-08T00:50:23.950Z,99887.61
2018-09-08T00:51:59.410Z,99892.92
2018-09-08T00:53:34.878Z,99893.05
2018-09-08T00:55:10.357Z,99891.46
2018-09-08T00:56:45.897Z,99889.92
2018-09-08T00:58:21.306Z,99899.00
2018-09-08T00:59:56.738Z,99903.13
2018-09-08T01:01:32.966Z,99899.97
2018-09-08T01:03:08.446Z,99904.36
2018-09-08T01:04:43.903Z,99906.24
2018-09-08T01:06:19.370Z,99903.05
2018-09-08T01:07:54.886Z,99907.53
2018-09-08T01:09:30.429Z,99908.80
2018-09-08T01:11:05.957Z,99911.91
2018-09-08T01:12:41.404Z,99911.97
2018-09-08T01:14:16.834Z,99911.49
2018-09-08T01:15:52.340Z,99918.27
2018-09-08T01:17:27.778Z,99922.61
2018-09-08T01:19:03.268Z,99920.35
2018-09-08T01:20:38.736Z,99925.78
2018-09-08T01:22:14.163Z,99922.76
2018-09-08T01:23:51.224Z,99920.80
2018-09-08T01:25:26.658Z,99924.36
2018-09-08T01:27:04.194Z,99924.14
2018-09-08T01:28:39.632Z,99927.37
2018-09-08T01:30:15.059Z,99927.49
2018-09-08T01:31:50.622Z,99925.31
2018-09-08T01:33:26.400Z,99924.30
2018-09-08T01:35:01.904Z,99920.73
2018-09-08T01:36:37.361Z,99924.62
2018-09-08T01:38:12.838Z,99926.72
2018-09-08T01:39:48.278Z,99921.00
2018-09-08T01:41:23.743Z,99924.53
2018-09-08T01:42:59.222Z,99927.95
2018-09-08T01:44:34.669Z,99926.67
2018-09-08T01:46:10.157Z,99930.34
2018-09-08T01:47:45.590Z,99935.91
2018-09-08T01:49:21.063Z,99926.89
2018-09-08T01:50:56.539Z,99929.76
2018-09-08T01:52:32.018Z,99928.00
2018-09-08T01:54:07.814Z,99933.30
2018-09-08T01:55:43.261Z,99930.22
2018-09-08T01:57:18.726Z,99933.72
2018-09-08T01:58:54.275Z,99928.35
2018-09-08T02:00:29.855Z,99939.00
2018-09-08T02:02:05.417Z,99944.56
2018-09-08T02:03:40.836Z,99939.45
2018-09-08T02:05:16.338Z,99941.30
2018-09-08T02:06:51.862Z,99943.41
2018-09-08T02:08:27.330Z,99941.97
2018-09-08T02:10:02.781Z,99942.48
2018-09-08T02:11:38.552Z,99948.74
2018-09-08T02:13:14.424Z,99946.75
2018-09-08T02:14:49.896Z,99942.03
2018-09-08T02:16:25.365Z,99942.97
2018-09-08T02:18:00.777Z,99946.98
2018-09-08T02:19:36.271Z,99944.62
2018-09-08T02:21:11.731Z,99950.14
2018-09-08T02:22:47.149Z,99948.48
2018-09-08T02:24:22.722Z,99956.61
2018-09-08T02:25:58.177Z,99956.50
2018-09-08T02:27:33.627Z,99964.85
2018-09-08T02:29:10.105Z,99963.34
2018-09-08T02:30:45.598Z,99963.69
2018-09-08T02:32:21.016Z,99970.38
2018-09-08T02:33:56.494Z,99969.02
2018-09-08T02:35:31.997Z,99967.02
2018-09-08T02:37:07.459Z,99972.80
2018-09-08T02:38:43.190Z,99977.98
2018-09-08T02:40:18.675Z,99961.80
2018-09-08T02:41:54.109Z,99972.39
2018-09-08T02:43:29.666Z,99975.14
2018-09-08T02:45:06.310Z,99973.72
2018-09-08T02:46:41.749Z,99973.50
2018-09-08T02:48:17.187Z,99975.11
2018-09-08T02:50:03.902Z,99971.95
2018-09-08T02:51:38.409Z,99977.42
2018-09-08T02:53:14.060Z,99976.66
2018-09-08T02:54:48.570Z,99979.78
2018-09-08T02:56:23.050Z,99984.00
2018-09-08T02:57:58.013Z,99980.28
2018-09-08T02:59:32.514Z,99985.28
2018-09-08T03:01:07.031Z,99981.84
2018-09-08T03:02:41.555Z,99981.92
2018-09-08T03:04:16.070Z,99985.73
2018-09-08T03:05:50.569Z,99985.61
2018-09-08T03:07:25.051Z,99992.15
2018-09-08T03:08:59.581Z,99983.77
2018-09-08T03:10:34.127Z,99986.11
2018-09-08T03:12:08.774Z,99993.52
2018-09-08T03:13:43.258Z,100000.37
2018-09-08T03:15:17.825Z,100002.31
2018-09-08T03:16:52.323Z,100000.05
2018-09-08T03:18:26.832Z,99993.52
2018-09-08T03:20:01.526Z,99995.89
2018-09-08T03:21:36.042Z,99998.41
2018-09-08T03:23:10.553Z,99991.78
2018-09-08T03:24:45.032Z,99996.09
2018-09-08T03:26:19.579Z,99996.44
2018-09-08T03:27:54.098Z,99999.59
2018-09-08T03:29:28.615Z,100000.37
2018-09-08T03:31:03.156Z,99997.86
2018-09-08T03:32:37.709Z,100003.41
2018-09-08T03:34:12.497Z,99998.41
2018-09-08T03:35:47.013Z,100000.72
2018-09-08T03:37:21.493Z,100003.37
2018-09-08T03:38:56.154Z,100005.78
2018-09-08T03:40:30.668Z,100004.52
2018-09-08T03:42:05.186Z,100009.34
2018-09-08T03:43:39.691Z,100010.06
2018-09-08T03:45:14.187Z,100013.87
2018-09-08T03:46:48.723Z,100014.64
2018-09-08T03:48:23.230Z,100011.31
2018-09-08T03:49:57.735Z,100020.00
2018-09-08T03:51:32.261Z,100024.54
2018-09-08T03:53:06.753Z,100013.41
2018-09-08T03:54:41.263Z,100010.30
2018-09-08T03:56:15.785Z,100009.66
2018-09-08T03:57:50.316Z,100015.89
2018-09-08T03:59:24.810Z,100015.35
2018-09-08T04:00:59.297Z,100015.95
2018-09-08T04:02:33.880Z,100012.78
2018-09-08T04:04:09.346Z,100016.28
2018-09-08T04:05:44.863Z,100019.65
2018-09-08T04:07:20.236Z,100017.61
2018-09-08T04:08:55.926Z,100020.78
2018-09-08T04:10:31.390Z,99983.38
2018-09-08T04:12:06.841Z,100029.27
2018-09-08T04:13:42.330Z,100032.25
2018-09-08T04:15:17.742Z,100032.11
2018-09-08T04:16:53.218Z,100032.04
2018-09-08T04:18:28.645Z,100030.58
2018-09-08T04:20:04.154Z,100031.77
2018-09-08T04:21:39.605Z,100034.31
2018-09-08T04:23:15.031Z,100039.22
2018-09-08T04:24:50.557Z,99976.02
2018-09-08T04:26:26.034Z,100032.00
2018-09-08T04:28:01.520Z,100037.91
2018-09-08T04:29:37.017Z,100046.08
2018-09-08T04:31:12.450Z,100039.23
2018-09-08T04:32:48.052Z,100044.89
2018-09-08T04:34:23.467Z,100046.55
2018-09-08T04:35:58.982Z,100047.50
2018-09-08T04:37:34.449Z,100049.09
2018-09-08T04:39:10.957Z,100050.63
2018-09-08T04:40:46.407Z,100050.75
2018-09-08T04:42:21.877Z,100047.27
2018-09-08T04:43:57.339Z,100049.43
2018-09-08T04:45:32.787Z,100053.77
2018-09-08T04:47:22.862Z,100052.58
2018-09-08T04:48:58.335Z,100049.20
2018-09-08T04:50:33.816Z,100056.55
2018-09-08T04:52:09.312Z,100051.13
2018-09-08T04:53:44.818Z,100060.61
2018-09-08T04:55:21.383Z,100064.11
2018-09-08T04:56:56.823Z,100067.72
2018-09-08T04:58:32.314Z,100070.36
2018-09-08T05:00:08.225Z,100069.26
2018-09-08T05:01:43.723Z,100074.31
2018-09-08T05:03:19.181Z,100072.86
2018-09-08T05:04:54.727Z,100075.91
2018-09-08T05:06:30.198Z,100074.31
2018-09-08T05:08:05.711Z,100074.08
2018-09-08T05:09:41.185Z,100078.05
2018-09-08T05:11:16.663Z,100077.70
2018-09-08T05:12:52.165Z,100077.81
2018-09-08T05:14:27.634Z,100077.44
2018-09-08T05:16:03.134Z,100086.33
2018-09-08T05:17:38.945Z,100082.83
2018-09-08T05:19:14.444Z,100081.50
2018-09-08T05:20:49.907Z,100080.64
2018-09-08T05:22:25.436Z,100078.84
2018-09-08T05:24:01.597Z,100080.41
2018-09-08T05:25:38.390Z,100084.37
2018-09-08T05:27:13.908Z,100078.09
2018-09-08T05:28:50.166Z,100084.24
2018-09-08T05:30:25.717Z,100082.61
2018-09-08T05:32:01.209Z,100088.48
2018-09-08T05:33:36.646Z,100078.99
2018-09-08T05:35:12.306Z,100078.86
2018-09-08T05:36:47.760Z,100082.48
2018-09-08T05:38:23.267Z,100086.86
2018-09-08T05:39:58.725Z,100092.45
2018-09-08T05:41:34.263Z,100086.08
2018-09-08T05:43:09.895Z,100091.03
2018-09-08T05:44:45.498Z,100094.87
2018-09-08T05:46:21.003Z,100095.25
2018-09-08T05:47:56.539Z,100095.64
2018-09-08T05:49:32.383Z,100098.61
2018-09-08T05:51:07.957Z,100099.31
2018-09-08T05:52:43.447Z,100094.47
2018-09-08T05:54:19.329Z,100099.62
2018-09-08T05:55:54.832Z,100104.02
2018-09-08T05:57:30.345Z,100108.20
2018-09-08T05:59:05.867Z,100112.42
2018-09-08T06:00:41.361Z,100100.75
2018-09-08T06:02:16.873Z,100114.14
2018-09-08T06:03:52.408Z,100114.14
2018-09-08T06:05:27.961Z,100111.96
2018-09-08T06:07:04.546Z,100111.27
2018-09-08T06:08:40.053Z,100112.08
2018-09-08T06:10:15.585Z,100116.99
2018-09-08T06:11:51.052Z,100109.84
2018-09-08T06:13:26.519Z,100109.21
2018-09-08T06:15:02.045Z,100113.48
2018-09-08T06:16:37.575Z,100112.66
2018-09-08T06:18:13.172Z,100114.50
2018-09-08T06:19:48.659Z,100109.21
2018-09-08T06:21:24.690Z,100116.95
2018-09-08T06:23:00.224Z,100115.95
2018-09-08T06:24:35.708Z,100118.04
2018-09-08T06:26:11.321Z,100115.69
2018-09-08T06:27:47.920Z,100117.03
2018-09-08T06:29:24.302Z,100110.14
2018-09-08T06:30:59.846Z,100117.00
2018-09-08T06:32:35.320Z,100114.34
2018-09-08T06:34:10.755Z,100123.44
2018-09-08T06:35:46.255Z,100116.89
2018-09-08T06:37:21.763Z,100122.26
2018-09-08T06:38:57.303Z,100119.55
2018-09-08T06:40:32.771Z,100116.27
2018-09-08T06:42:08.250Z,100116.48
2018-09-08T06:43:43.736Z,100118.72
2018-09-08T06:45:19.263Z,100114.19
2018-09-08T06:46:54.663Z,100109.55
2018-09-08T06:48:30.135Z,100111.73
2018-09-08T06:50:05.649Z,100114.47
2018-09-08T06:51:41.109Z,100110.25
2018-09-08T06:53:16.717Z,100113.76
2018-09-08T06:54:52.182Z,100124.98
2018-09-08T06:56:27.693Z,100125.72
2018-09-08T06:58:03.832Z,100123.70
2018-09-08T06:59:39.218Z,100128.13
2018-09-08T07:01:14.820Z,100125.16
2018-09-08T07:02:50.274Z,100125.50
2018-09-08T07:04:25.723Z,100123.27
2018-09-08T07:06:01.385Z,100117.78
2018-09-08T07:07:36.886Z,100122.56
2018-09-08T07:09:12.342Z,100116.91
2018-09-08T07:10:47.839Z,100116.69
2018-09-08T07:12:23.290Z,100115.13
2018-09-08T07:13:58.760Z,100116.52
2018-09-08T07:15:34.181Z,100122.86
2018-09-08T07:17:09.673Z,100117.64
2018-09-08T07:18:45.110Z,100121.09
2018-09-08T07:20:20.579Z,100118.28
2018-09-08T07:21:55.978Z,100123.73
2018-09-08T07:23:32.006Z,100047.89
2018-09-08T07:25:07.976Z,100121.51
2018-09-08T07:26:43.435Z,100125.13
2018-09-08T07:28:18.924Z,100125.36
2018-09-08T07:29:54.401Z,100123.63
2018-09-08T07:31:29.823Z,100123.86
2018-09-08T07:33:05.350Z,100120.94
2018-09-08T07:34:40.793Z,100125.51
2018-09-08T07:36:16.306Z,100125.19
2018-09-08T07:37:51.839Z,100122.20
2018-09-08T07:39:27.332Z,100128.98
2018-09-08T07:41:02.777Z,100125.05
2018-09-08T07:42:38.290Z,100126.38
2018-09-08T07:44:13.786Z,100124.27
2018-09-08T07:45:49.448Z,100130.25
2018-09-08T07:47:24.952Z,100124.34
2018-09-08T07:49:00.430Z,100121.81
2018-09-08T07:50:35.933Z,100123.50
2018-09-08T07:52:11.450Z,100132.37
2018-09-08T07:53:46.915Z,100136.45
2018-09-08T07:55:22.584Z,100132.42
2018-09-08T07:56:58.083Z,100135.47
2018-09-08T07:58:33.550Z,100130.84
2018-09-08T08:00:09.010Z,100134.06
2018-09-08T08:01:44.481Z,100133.97
2018-09-08T08:03:19.947Z,100128.91
2018-09-08T08:04:55.418Z,100135.30
2018-09-08T08:06:30.864Z,100134.27
2018-09-08T08:08:06.607Z,100134.44
2018-09-08T08:09:42.538Z,100133.80
2018-09-08T08:11:18.058Z,100135.60
2018-09-08T08:12:53.623Z,100139.66
2018-09-08T08:14:29.129Z,100142.44
2018-09-08T08:16:04.663Z,100140.94
2018-09-08T08:17:40.146Z,100148.66
2018-09-08T08:19:15.699Z,100142.44
2018-09-08T08:20:51.153Z,100136.94
2018-09-08T08:22:26.653Z,100141.48
2018-09-08T08:24:02.164Z,100134.06
2018-09-08T08:25:37.656Z,100138.91
2018-09-08T08:27:13.129Z,100142.50
2018-09-08T08:28:48.610Z,100143.38
2018-09-08T08:30:24.070Z,100152.74
2018-09-08T08:31:59.544Z,100151.67
2018-09-08T08:33:35.051Z,100147.00
2018-09-08T08:35:10.540Z,100142.34
2018-09-08T08:36:46.049Z,100139.30
2018-09-08T08:38:21.473Z,100144.77
2018-09-08T08:39:56.930Z,100143.48
2018-09-08T08:41:32.390Z,100143.19
2018-09-08T08:43:07.949Z,100141.02
2018-09-08T08:44:43.363Z,100136.06
2018-09-08T08:46:18.822Z,100149.47
2018-09-08T08:47:54.350Z,100145.03
2018-09-08T08:49:29.915Z,100152.44
2018-09-08T08:51:16.884Z,100145.89
2018-09-08T08:53:03.609Z,100142.71
2018-09-08T08:54:48.174Z,100147.91
2018-09-08T08:56:24.062Z,100143.77
2018-09-08T08:57:59.505Z,100152.91
2018-09-08T08:59:34.942Z,100138.97
2018-09-08T09:01:10.708Z,100138.31
2018-09-08T09:02:46.150Z,100136.84
2018-09-08T09:04:21.561Z,100136.98
2018-09-08T09:05:57.032Z,100132.41
2018-09-08T09:07:32.878Z,100138.14
2018-09-08T09:09:12.020Z,100134.41
2018-09-08T09:10:47.473Z,100136.59
2018-09-08T09:12:22.973Z,100131.09
2018-09-08T09:13:58.481Z,100131.70
2018-09-08T09:15:34.214Z,100129.80
2018-09-08T09:17:09.333Z,100128.78
2018-09-08T09:18:56.579Z,100130.35
2018-09-08T09:20:43.061Z,100130.77
2018-09-08T09:22:29.942Z,100129.13
2018-09-08T09:25:10.224Z,100127.98
2018-09-08T09:26:46.588Z,100132.73
2018-09-08T09:28:22.038Z,100119.36
2018-09-08T09:29:57.777Z,100121.23
2018-09-08T09:31:33.232Z,100123.05
2018-09-08T09:33:08.665Z,100118.06
2018-09-08T09:34:44.106Z,100119.40
2018-09-08T09:36:19.618Z,100116.17
2018-09-08T09:37:55.079Z,100112.91
2018-09-08T09:39:30.503Z,100111.52
2018-09-08T09:41:05.919Z,100115.06
2018-09-08T09:42:41.453Z,100108.18
2018-09-08T09:44:16.916Z,100112.86
2018-09-08T09:45:52.346Z,100112.68
2018-09-08T09:47:27.811Z,100109.48
2018-09-08T09:49:03.422Z,100109.20
2018-09-08T09:50:38.873Z,100105.23
2018-09-08T09:52:14.340Z,100103.57
2018-09-08T09:53:49.823Z,100098.07
2018-09-08T09:55:25.348Z,100102.23
2018-09-08T09:57:00.769Z,100100.56
2018-09-08T09:58:36.209Z,100101.73
2018-09-08T10:00:16.981Z,100102.09
2018-09-08T10:01:57.926Z,100099.15
2018-09-08T10:03:33.711Z,100096.86
2018-09-08T10:05:13.273Z,100096.86
2018-09-08T10:06:48.751Z,100094.34
2018-09-08T10:08:24.232Z,100092.61
2018-09-08T10:09:59.620Z,100092.02
2018-09-08T10:11:35.158Z,100094.97
2018-09-08T10:13:10.638Z,100095.14
2018-09-08T10:14:46.183Z,100095.88
2018-09-08T10:16:21.607Z,100100.34
2018-09-08T10:17:57.076Z,100097.17
2018-09-08T10:19:32.546Z,100085.34
2018-09-08T10:21:08.004Z,100092.17
2018-09-08T10:22:43.435Z,100097.19
2018-09-08T10:24:18.862Z,100096.48
2018-09-08T10:25:54.351Z,100095.48
2018-09-08T10:27:29.778Z,100094.03
2018-09-08T10:29:05.241Z,100093.68
2018-09-08T10:30:40.742Z,100092.19
2018-09-08T10:32:16.618Z,100095.55
2018-09-08T10:33:51.632Z,100094.96
2018-09-08T10:35:27.109Z,100082.47
2018-09-08T10:37:02.632Z,100085.34
2018-09-08T10:38:38.133Z,100083.17
2018-09-08T10:40:14.111Z,100081.33
2018-09-08T10:41:49.519Z,100078.99
2018-09-08T10:43:25.018Z,100079.84
2018-09-08T10:45:00.502Z,100075.48
2018-09-08T10:46:35.994Z,100077.81
2018-09-08T10:48:11.583Z,100071.81
2018-09-08T10:49:47.078Z,100071.97
2018-09-08T10:52:30.988Z,100070.13
2018-09-08T10:54:06.451Z,100063.95
2018-09-08T10:55:41.942Z,100063.13
2018-09-08T10:57:17.927Z,100064.41
2018-09-08T10:58:53.604Z,100068.95
2018-09-08T11:00:29.086Z,100059.44
2018-09-08T11:02:04.733Z,100061.11
2018-09-08T11:03:40.037Z,100061.77
2018-09-08T11:05:15.536Z,100068.47
2018-09-08T11:06:51.025Z,100063.13
2018-09-08T11:08:26.508Z,100062.66
2018-09-08T11:10:02.021Z,100055.47
2018-09-08T11:11:37.542Z,100071.83
2018-09-08T11:13:13.063Z,100065.47
2018-09-08T11:14:48.565Z,100063.91
2018-09-08T11:16:24.062Z,100064.11
2018-09-08T11:17:59.546Z,100057.11
2018-09-08T11:19:35.019Z,100057.45
2018-09-08T11:21:10.570Z,100053.97
2018-09-08T11:22:46.014Z,100047.02
2018-09-08T11:24:21.497Z,100047.53
2018-09-08T11:25:56.977Z,100049.34
2018-09-08T11:27:32.512Z,100059.43
2018-09-08T11:29:07.943Z,100055.24
2018-09-08T11:30:43.566Z,100055.91
2018-09-08T11:32:18.934Z,100052.39
2018-09-08T11:33:54.373Z,100043.55
2018-09-08T11:35:29.895Z,100046.43
2018-09-08T11:37:05.468Z,100046.59
2018-09-08T11:38:40.980Z,100042.92
2018-09-08T11:40:16.495Z,100045.21
2018-09-08T11:41:51.959Z,100045.98
2018-09-08T11:43:27.531Z,100045.56
2018-09-08T11:45:03.059Z,100045.94
2018-09-08T11:46:38.546Z,100041.75
2018-09-08T11:48:14.114Z,100042.72
2018-09-08T11:49:49.657Z,100039.38
2018-09-08T11:51:25.198Z,100043.05
2018-09-08T11:53:00.813Z,100042.07
2018-09-08T11:54:36.191Z,100041.89
2018-09-08T11:56:11.755Z,100032.78
2018-09-08T11:57:47.259Z,100033.77
2018-09-08T11:59:22.710Z,100036.39
2018-09-08T12:00:58.171Z,100037.27
2018-09-08T12:02:33.635Z,100033.08
2018-09-08T12:04:09.114Z,100033.01
2018-09-08T12:05:44.592Z,100034.67
2018-09-08T12:07:20.039Z,100035.03
2018-09-08T12:08:55.455Z,100027.86
2018-09-08T12:10:30.931Z,100026.02
2018-09-08T12:12:06.425Z,100022.31
2018-09-08T12:13:41.941Z,100026.75
2018-09-08T12:15:17.433Z,100028.91
2018-09-08T12:16:52.877Z,100027.45
2018-09-08T12:18:28.322Z,100026.26
2018-09-08T12:20:03.748Z,100024.80
2018-09-08T12:21:39.228Z,100017.65
2018-09-08T12:23:14.642Z,100026.33
2018-09-08T12:24:50.099Z,100021.20
2018-09-08T12:26:25.582Z,100014.77
2018-09-08T12:28:01.012Z,100007.23
2018-09-08T12:29:36.515Z,100010.31
2018-09-08T12:31:12.008Z,100013.33
2018-09-08T12:32:47.573Z,100006.58
2018-09-08T12:34:23.056Z,100009.06
2018-09-08T12:35:58.673Z,100001.61
2018-09-08T12:37:34.169Z,100002.86
2018-09-08T12:39:09.728Z,100011.40
2018-09-08T12:40:45.206Z,100012.53
2018-09-08T12:42:20.718Z,99998.28
2018-09-08T12:43:57.788Z,100007.42
2018-09-08T12:45:35.202Z,99999.08
2018-09-08T12:47:12.047Z,100001.34
2018-09-08T12:48:47.469Z,99996.70
2018-09-08T12:50:22.934Z,99999.13
2018-09-08T12:51:58.475Z,99999.34
2018-09-08T12:53:34.013Z,100000.80
2018-09-08T12:55:09.475Z,99993.92
2018-09-08T12:56:44.934Z,99994.22
2018-09-08T12:58:20.472Z,99993.23
2018-09-08T12:59:55.859Z,99993.87
2018-09-08T13:01:31.409Z,99996.97
2018-09-08T13:03:07.047Z,99997.48
2018-09-08T13:04:42.506Z,99991.10
2018-09-08T13:06:17.968Z,99988.73
2018-09-08T13:07:53.448Z,99985.67
2018-09-08T13:09:28.955Z,99988.75
2018-09-08T13:11:04.454Z,99981.61
2018-09-08T13:12:39.978Z,99978.47
2018-09-08T13:14:15.503Z,99985.03
2018-09-08T13:15:50.985Z,99975.97
2018-09-08T13:17:26.455Z,99979.16
2018-09-08T13:19:01.943Z,99979.47
2018-09-08T13:20:37.569Z,99974.52
2018-09-08T13:22:13.088Z,99963.61
2018-09-08T13:23:48.517Z,99963.12
2018-09-08T13:25:24.034Z,99962.84
2018-09-08T13:26:59.523Z,99962.98
2018-09-08T13:28:35.036Z,99964.38
2018-09-08T13:30:10.502Z,99929.34
2018-09-08T13:31:45.990Z,99967.55
2018-09-08T13:33:21.400Z,99959.56
2018-09-08T13:34:57.227Z,99961.73
2018-09-08T13:36:32.660Z,99961.63
2018-09-08T13:38:08.295Z,99961.88
2018-09-08T13:39:43.790Z,99961.34
2018-09-08T13:41:19.143Z,99958.19
2018-09-08T13:42:54.610Z,99962.66
2018-09-08T13:44:30.052Z,99962.86
2018-09-08T13:46:05.519Z,99963.05
2018-09-08T13:47:41.026Z,99958.75
2018-09-08T13:49:16.533Z,99959.67
2018-09-08T13:50:52.001Z,99964.16
2018-09-08T13:52:27.408Z,99964.70
2018-09-08T13:54:02.914Z,99964.60
2018-09-08T13:55:38.418Z,99959.12
2018-09-08T13:57:13.916Z,99961.41
2018-09-08T13:58:49.358Z,99964.61
2018-09-08T14:00:24.819Z,99963.33
2018-09-08T14:02:00.246Z,99968.14
2018-09-08T14:03:35.747Z,99970.55
2018-09-08T14:05:11.228Z,99967.41
2018-09-08T14:06:46.740Z,99963.67
2018-09-08T14:08:25.232Z,99964.16
2018-09-08T14:10:00.666Z,99961.42
2018-09-08T14:11:36.300Z,99958.56
2018-09-08T14:13:11.801Z,99952.98
2018-09-08T14:14:47.340Z,99958.00
2018-09-08T14:16:22.764Z,99962.32
2018-09-08T14:17:58.250Z,99962.85
2018-09-08T14:19:33.689Z,99967.92
2018-09-08T14:21:09.143Z,99967.56
2018-09-08T14:22:44.558Z,99958.98
2018-09-08T14:24:20.062Z,99960.78
2018-09-08T14:25:55.466Z,99961.96
2018-09-08T14:27:30.925Z,99956.05
2018-09-08T14:29:06.376Z,99959.33
2018-09-08T14:30:41.781Z,99951.14
2018-09-08T14:32:17.161Z,99952.14
2018-09-08T14:33:53.171Z,99950.10
2018-09-08T14:35:28.572Z,99947.58
2018-09-08T14:37:04.052Z,99950.64
2018-09-08T14:38:39.780Z,99950.16
2018-09-08T14:40:15.229Z,99952.29
2018-09-08T14:41:50.675Z,99942.41
2018-09-08T14:43:26.243Z,99942.22
2018-09-08T14:45:01.930Z,99936.25
2018-09-08T14:46:37.377Z,99944.45
2018-09-08T14:48:12.950Z,99939.82
2018-09-08T14:49:48.574Z,99935.20
2018-09-08T14:51:24.100Z,99940.63
2018-09-08T14:52:59.739Z,99945.63
2018-09-08T14:54:35.651Z,99940.57
2018-09-08T14:56:12.161Z,99936.30
2018-09-08T14:57:47.665Z,99940.47
2018-09-08T14:59:23.136Z,99945.44
2018-09-08T15:00:58.637Z,99951.77
2018-09-08T15:02:34.138Z,99945.98
2018-09-08T15:04:09.572Z,99943.74
2018-09-08T15:05:45.029Z,99945.07
2018-09-08T15:07:20.475Z,99942.95
2018-09-08T15:08:55.954Z,99949.91
2018-09-08T15:10:31.453Z,99946.20
2018-09-08T15:12:07.018Z,99944.89
2018-09-08T15:13:42.534Z,99936.64
2018-09-08T15:15:18.401Z,99940.83
2018-09-08T15:16:53.886Z,99935.30
2018-09-08T15:18:30.454Z,99936.84
2018-09-08T15:20:05.923Z,99945.31
2018-09-08T15:21:41.404Z,99940.63
2018-09-08T15:23:16.910Z,99941.09
2018-09-08T15:24:52.350Z,99941.17
2018-09-08T15:26:27.845Z,99948.60
2018-09-08T15:28:03.387Z,99938.88
2018-09-08T15:29:39.023Z,99939.53
2018-09-08T15:31:14.436Z,99936.48
2018-09-08T15:32:49.908Z,99936.81
2018-09-08T15:34:25.414Z,99932.00
2018-09-08T15:36:00.840Z,99936.12
2018-09-08T15:37:36.326Z,99929.58
2018-09-08T15:39:11.966Z,99932.27
2018-09-08T15:40:47.470Z,99926.45
2018-09-08T15:42:23.656Z,99922.47
2018-09-08T15:43:59.154Z,99923.63
2018-09-08T15:45:34.588Z,99857.78
2018-09-08T15:47:10.099Z,99929.32
2018-09-08T15:48:45.569Z,99926.17
2018-09-08T15:50:21.029Z,99923.28
2018-09-08T15:51:56.528Z,99925.47
2018-09-08T15:53:32.187Z,99925.30
2018-09-08T15:55:07.799Z,99924.99
2018-09-08T15:56:43.316Z,99928.19
2018-09-08T15:58:18.891Z,99930.05
2018-09-08T15:59:54.419Z,99930.50
2018-09-08T16:01:29.861Z,99928.50
2018-09-08T16:03:05.378Z,99926.83
2018-09-08T16:04:40.839Z,99921.81
2018-09-08T16:06:16.351Z,99925.48
2018-09-08T16:07:51.967Z,99924.70
2018-09-08T16:09:27.456Z,99928.07
2018-09-08T16:11:03.024Z,99926.87
2018-09-08T16:12:38.543Z,99933.59
2018-09-08T16:14:14.343Z,99932.26
2018-09-08T16:15:49.715Z,99931.07
2018-09-08T16:17:25.319Z,99939.79
2018-09-08T16:19:00.972Z,99936.79
2018-09-08T16:20:36.549Z,99937.77
2018-09-08T16:22:12.055Z,99935.25
2018-09-08T16:23:47.644Z,99935.30
2018-09-08T16:25:23.093Z,99938.30
2018-09-08T16:26:58.644Z,99938.81
2018-09-08T16:28:34.244Z,99936.94
2018-09-08T16:30:09.695Z,99932.78
2018-09-08T16:31:45.264Z,99932.45
2018-09-08T16:33:27.253Z,99931.08
2018-09-08T16:35:02.756Z,99930.91
2018-09-08T16:36:38.350Z,99925.09
2018-09-08T16:38:13.890Z,99927.42
2018-09-08T16:39:49.437Z,99923.07
2018-09-08T16:41:24.910Z,99926.77
2018-09-08T16:43:00.395Z,99928.77
2018-09-08T16:44:35.905Z,99920.38
2018-09-08T16:46:11.450Z,99927.77
2018-09-08T16:47:47.036Z,99931.30
2018-09-08T16:49:28.875Z,99928.12
2018-09-08T16:51:04.404Z,99926.13
2018-09-08T16:52:40.969Z,99931.45
2018-09-08T16:54:16.444Z,99927.13
2018-09-08T16:55:51.963Z,99925.13
2018-09-08T16:57:27.507Z,99929.47
2018-09-08T16:59:02.982Z,99924.24
2018-09-08T17:00:38.482Z,99930.58
2018-09-08T17:02:13.920Z,99930.41
2018-09-08T17:03:49.412Z,99929.42
2018-09-08T17:05:24.955Z,99939.27
2018-09-08T17:07:00.551Z,99940.09
2018-09-08T17:08:36.799Z,99944.08
2018-09-08T17:10:12.256Z,99944.10
2018-09-08T17:11:47.839Z,99945.13
2018-09-08T17:13:23.319Z,99942.25
2018-09-08T17:15:00.019Z,99944.42
2018-09-08T17:16:35.622Z,99946.38
2018-09-08T17:18:11.132Z,99946.38
2018-09-08T17:19:46.826Z,99855.57
2018-09-08T17:21:22.364Z,99946.28
2018-09-08T17:22:57.921Z,99949.72
2018-09-08T17:24:33.372Z,99949.45
2018-09-08T17:26:09.270Z,99887.42
2018-09-08T17:27:44.748Z,99950.25
2018-09-08T17:29:20.190Z,99946.60
2018-09-08T17:30:55.654Z,99947.44
2018-09-08T17:32:31.178Z,99940.12
2018-09-08T17:34:06.721Z,99941.19
2018-09-08T17:35:42.257Z,99940.66
2018-09-08T17:37:17.782Z,99945.44
2018-09-08T17:38:53.290Z,99944.12
2018-09-08T17:40:28.793Z,99956.73
2018-09-08T17:42:04.287Z,99957.67
2018-09-08T17:43:39.743Z,99959.97
2018-09-08T17:45:15.243Z,99957.19
2018-09-08T17:46:51.145Z,99959.02
2018-09-08T17:48:26.660Z,99962.52
2018-09-08T17:50:02.159Z,99960.77
2018-09-08T17:51:37.654Z,99965.48
2018-09-08T17:53:13.134Z,99963.48
2018-09-08T17:54:48.602Z,99964.08
2018-09-08T17:56:24.093Z,99968.38
2018-09-08T17:57:59.794Z,99966.55
2018-09-08T17:59:35.250Z,99965.52
2018-09-08T18:01:10.747Z,99967.78
2018-09-08T18:02:46.236Z,99968.93
2018-09-08T18:04:22.117Z,99976.08
2018-09-08T18:05:57.633Z,99978.36
2018-09-08T18:07:33.330Z,99975.09
2018-09-08T18:09:08.766Z,99983.73
2018-09-08T18:10:44.297Z,99986.89
2018-09-08T18:12:19.845Z,99991.17
2018-09-08T18:13:55.407Z,99988.02
2018-09-08T18:15:30.960Z,99995.63
2018-09-08T18:17:06.537Z,100003.06
2018-09-08T18:18:42.158Z,99998.39
2018-09-08T18:20:17.644Z,99992.67
2018-09-08T18:21:53.245Z,99996.83
2018-09-08T18:23:28.788Z,99991.80
2018-09-08T18:25:04.273Z,100000.08
2018-09-08T18:26:39.993Z,100003.42
2018-09-08T18:28:15.582Z,100003.19
2018-09-08T18:29:51.114Z,99998.51